Time;durP1;ratioP1;P1;durP2;ratioP2;P2;SDS_P1;SDS_P2;PMS_P1;PMS_P2;Temp;Humidity;BMP_temperature;BMP_pressure;BME280_temperature;BME280_humidity;BME280_pressure;Samples;Min_cycle;Max_cycle;Signal;HPM_P1;HPM_P2
2022/07/20 00:01:33;;;;;;;3.65;3.35;;;24.20;93.90;;;24.28;45.33;100907.66;4883809;28;99952;-52
2022/07/20 00:03:59;;;;;;;5.13;3.53;;;24.10;93.60;;;24.28;44.94;100920.28;4894044;28;97709;-52
2022/07/20 00:06:25;;;;;;;4.97;3.70;;;24.10;93.50;;;24.28;44.87;100914.91;4891636;28;98015;-55
2022/07/20 00:11:35;;;;;;;4.13;3.45;;;24.20;93.80;;;24.28;45.43;100914.91;4887473;28;98183;-54
2022/07/20 00:14:03;;;;;;;4.63;3.55;;;24.20;93.90;;;24.28;45.25;100912.22;4892051;28;97372;-54
2022/07/20 00:16:31;;;;;;;4.25;3.28;;;24.20;93.60;;;24.28;45.32;100920.28;4891350;28;97659;-54
2022/07/20 00:18:58;;;;;;;3.35;3.05;;;24.20;93.80;;;24.26;45.33;100904.25;4890117;28;98757;-54
2022/07/20 00:21:24;;;;;;;2.80;2.60;;;24.10;93.90;;;24.25;45.41;100916.03;4892206;28;99029;-56
2022/07/20 00:23:50;;;;;;;2.35;2.15;;;24.10;93.90;;;24.24;45.56;100916.19;4888928;28;96933;-55
2022/07/20 00:26:17;;;;;;;2.70;2.50;;;24.10;93.90;;;24.23;45.32;100911.78;4890978;28;97349;-55
2022/07/20 00:28:43;;;;;;;3.53;2.95;;;24.10;94.00;;;24.23;45.47;100906.38;4889306;28;97576;-56
2022/07/20 00:31:08;;;;;;;3.47;3.17;;;24.10;94.00;;;24.23;45.57;100906.38;4892043;28;99276;-56
2022/07/20 00:33:35;;;;;;;5.85;3.88;;;24.10;94.00;;;24.22;45.56;100904.69;4886547;28;97591;-54
2022/07/20 00:36:01;;;;;;;4.93;3.83;;;24.10;94.00;;;24.22;45.65;100904.69;4892517;28;97742;-56
2022/07/20 00:38:27;;;;;;;2.25;2.15;;;24.10;94.00;;;24.20;45.75;100906.66;4899114;28;98586;-55
2022/07/20 00:40:53;;;;;;;2.33;2.13;;;24.10;94.00;;;24.19;45.50;100911.22;4911014;28;97844;-54
2022/07/20 00:43:19;;;;;;;2.17;2.08;;;24.10;94.10;;;24.19;45.50;100904.97;4923027;28;97459;-55
2022/07/20 00:45:45;;;;;;;2.25;2.13;;;24.10;94.10;;;24.19;45.67;100910.34;4921162;28;97313;-55
2022/07/20 00:48:11;;;;;;;2.28;2.08;;;24.00;94.10;;;24.18;45.68;100900.56;4928043;28;97788;-56
2022/07/20 00:50:38;;;;;;;2.80;2.60;;;24.00;94.10;;;24.17;45.80;100904.25;4919343;28;97732;-53
2022/07/20 00:53:04;;;;;;;2.10;1.90;;;24.00;94.10;;;24.16;45.63;100897.13;4935882;28;96945;-53
2022/07/20 00:55:31;;;;;;;2.00;1.90;;;24.00;94.10;;;24.15;45.66;100892.72;4924304;28;97342;-54
2022/07/20 00:57:56;;;;;;;3.10;2.90;;;24.00;94.10;;;24.16;45.83;100889.03;4909150;28;96952;-53
2022/07/20 01:00:22;;;;;;;3.55;2.75;;;24.00;94.10;;;24.14;45.75;100891.03;4920805;28;98899;-54
2022/07/20 01:02:48;;;;;;;3.22;2.80;;;24.00;94.20;;;24.15;45.90;100887.34;4916848;28;97581;-53
2022/07/20 01:05:14;;;;;;;3.28;3.03;;;24.00;94.20;;;24.13;45.60;100879.41;4918537;28;96669;-54
2022/07/20 01:07:45;;;;;;;2.15;2.00;;;24.00;94.00;;;24.12;45.93;100877.69;4917075;28;97409;-52
2022/07/20 01:10:12;;;;;;;2.42;2.22;;;24.00;94.30;;;24.11;45.98;100880.53;4921578;28;97715;-52
2022/07/20 01:12:39;;;;;;;2.28;2.13;;;24.00;94.30;;;24.08;46.15;100880.81;4919702;28;97569;-53
2022/07/20 01:15:07;;;;;;;2.08;1.98;;;24.00;94.30;;;24.04;46.13;100870.31;4929326;28;97047;-53
2022/07/20 01:17:33;;;;;;;2.00;1.90;;;24.00;94.30;;;24.04;46.12;100875.69;4910561;28;97241;-53
2022/07/20 01:19:58;;;;;;;2.13;2.00;;;23.90;94.30;;;24.03;46.12;100874.00;4917647;28;97549;-52
2022/07/20 01:22:24;;;;;;;2.30;2.10;;;23.90;94.40;;;24.07;46.01;100877.25;4917402;28;97388;-54
2022/07/20 01:24:50;;;;;;;4.55;3.28;;;23.90;94.30;;;24.08;45.96;100881.66;4910946;28;97649;-56
2022/07/20 01:27:16;;;;;;;4.55;3.28;;;24.00;94.30;;;24.11;45.69;100876.00;4921538;28;96966;-52
2022/07/20 01:29:42;;;;;;;2.88;2.63;;;24.00;93.90;;;24.13;45.89;100883.94;4920537;28;99292;-53
2022/07/20 01:32:08;;;;;;;3.38;3.08;;;24.00;94.20;;;24.16;45.64;100889.03;4917436;28;97174;-53
2022/07/20 01:34:33;;;;;;;4.43;3.70;;;24.00;93.90;;;24.16;45.48;100894.44;4919108;28;97118;-54
2022/07/20 01:37:01;;;;;;;4.07;2.65;;;24.00;93.60;;;24.18;45.82;100882.56;4915366;28;96973;-53
2022/07/20 01:39:27;;;;;;;6.88;3.65;;;24.00;94.10;;;24.19;45.21;100878.00;4939427;28;97425;-52
2022/07/20 01:41:53;;;;;;;4.30;3.63;;;24.10;93.30;;;24.19;44.83;100888.78;4915763;28;97275;-52
2022/07/20 01:44:23;;;;;;;2.20;2.00;;;24.10;92.80;;;24.20;45.63;100885.97;4911030;28;97297;-55
2022/07/20 01:46:50;;;;;;;2.90;2.70;;;24.10;94.00;;;24.19;45.77;100883.41;4921203;28;97470;-53
2022/07/20 01:49:17;;;;;;;2.37;2.17;;;24.10;94.00;;;24.19;45.65;100880.72;4919452;28;97701;-50
2022/07/20 01:51:43;;;;;;;2.10;1.90;;;24.10;94.00;;;24.17;45.55;100880.00;4925483;28;97391;-56
2022/07/20 01:54:10;;;;;;;2.20;2.10;;;24.00;94.10;;;24.16;45.66;100883.66;4922855;28;97010;-54
2022/07/20 01:56:35;;;;;;;3.80;3.42;;;24.00;94.20;;;24.14;45.44;100874.84;4912460;28;97447;-54
2022/07/20 01:59:01;;;;;;;2.67;2.47;;;24.00;93.90;;;24.14;45.85;100877.56;4916928;28;97753;-50
2022/07/20 02:01:27;;;;;;;3.90;2.83;;;24.00;94.20;;;24.14;45.90;100888.31;4917012;28;97082;-55
2022/07/20 02:03:53;;;;;;;2.03;1.83;;;24.00;94.20;;;24.13;45.89;100881.25;4928231;28;97074;-56
2022/07/20 02:06:19;;;;;;;2.70;2.50;;;24.00;94.20;;;24.11;45.80;100880.53;4913941;28;97084;-54
2022/07/20 02:08:45;;;;;;;2.00;1.80;;;24.00;94.20;;;24.08;46.01;100886.19;4905400;28;97477;-55
2022/07/20 02:11:10;;;;;;;2.80;2.60;;;24.00;94.30;;;24.04;46.01;100881.09;4912643;28;97138;-55
2022/07/20 02:13:37;;;;;;;2.07;1.93;;;23.90;94.40;;;24.00;46.22;100881.47;4918198;28;97077;-50
2022/07/20 02:16:16;;;;;;;2.25;2.05;;;23.90;94.40;;;24.02;46.33;100883.06;4920735;28;97273;-54
2022/07/20 02:18:55;;;;;;;1.70;1.60;;;23.90;94.40;;;23.99;46.27;100888.69;4924098;28;99063;-54
2022/07/20 02:21:22;;;;;;;2.07;1.87;;;23.90;94.50;;;23.97;46.16;100887.13;4919188;28;98234;-53
2022/07/20 02:23:48;;;;;;;1.80;1.65;;;23.90;94.50;;;23.95;46.19;100886.41;4917661;28;102934;-54
2022/07/20 02:26:14;;;;;;;2.20;1.95;;;23.90;94.50;;;23.95;46.43;100889.97;4913753;28;97006;-54
2022/07/20 02:28:41;;;;;;;4.87;3.60;;;23.80;94.60;;;24.01;44.72;100892.13;4916485;28;97461;-54
2022/07/20 02:31:07;;;;;;;5.73;3.43;;;23.90;92.80;;;24.07;44.19;100889.88;4912706;28;104704;-55
2022/07/20 02:33:33;;;;;;;2.78;2.58;;;23.90;92.00;;;24.08;45.87;100889.75;4918638;28;96860;-59
2022/07/20 02:35:59;;;;;;;2.35;2.15;;;24.00;94.00;;;24.10;45.82;100889.59;4920635;28;96981;-54
2022/07/20 02:38:26;;;;;;;2.15;2.05;;;24.00;94.20;;;24.10;46.03;100890.44;4912886;28;97973;-52
2022/07/20 02:40:52;;;;;;;2.40;2.20;;;24.00;94.30;;;24.10;46.04;100889.59;4920079;28;98209;-54
2022/07/20 02:43:18;;;;;;;2.47;2.25;;;24.00;94.30;;;24.11;45.95;100885.91;4927923;28;97208;-52
2022/07/20 02:45:44;;;;;;;4.03;2.38;;;24.00;94.40;;;24.13;45.93;100883.94;4920088;28;97325;-52
2022/07/20 02:48:10;;;;;;;2.60;2.40;;;24.00;94.20;;;24.09;45.94;100880.66;4943351;28;97724;-53
2022/07/20 02:50:41;;;;;;;1.92;1.83;;;24.00;94.40;;;24.06;46.33;100874.69;4921246;28;97023;-51
2022/07/20 02:53:11;;;;;;;2.35;2.15;;;24.00;94.50;;;24.00;46.28;100868.00;4927091;28;97139;-54
2022/07/20 02:55:39;;;;;;;2.15;2.05;;;23.90;94.50;;;23.99;46.42;100864.44;4909805;28;97080;-50
2022/07/20 02:58:05;;;;;;;2.30;2.10;;;23.90;94.50;;;23.95;46.48;100862.19;4930388;28;97545;-49
2022/07/20 03:00:32;;;;;;;2.40;2.20;;;23.90;94.60;;;23.91;46.63;100861.59;4929986;28;97226;-49
2022/07/20 03:02:58;;;;;;;2.53;2.33;;;23.90;94.60;;;23.89;46.74;100858.19;4922149;28;96854;-53
2022/07/20 03:05:24;;;;;;;2.40;2.20;;;23.80;94.60;;;23.89;46.52;100855.50;4934751;28;96916;-51
2022/07/20 03:07:51;;;;;;;2.58;2.38;;;23.80;94.70;;;23.82;46.79;100848.09;4939931;28;97425;-52
2022/07/20 03:10:17;;;;;;;2.47;2.20;;;23.80;94.70;;;23.79;46.70;100848.34;4924364;28;98215;-52
2022/07/20 03:12:43;;;;;;;3.00;2.20;;;23.80;94.70;;;23.74;47.04;100851.47;4916715;28;101946;-55
2022/07/20 03:15:11;;;;;;;2.40;2.20;;;23.70;94.70;;;23.79;46.79;100848.34;4926449;28;97618;-52
2022/07/20 03:17:52;;;;;;;3.00;2.35;;;23.70;94.70;;;23.80;46.83;100861.69;4910235;28;97785;-52
2022/07/20 03:20:22;;;;;;;2.50;2.30;;;23.80;94.70;;;23.81;46.67;100859.84;4917586;28;98445;-50
2022/07/20 03:22:48;;;;;;;2.58;2.38;;;23.70;94.70;;;23.82;46.61;100865.09;4908127;28;99170;-52
2022/07/20 03:25:14;;;;;;;4.80;3.25;;;23.70;94.70;;;23.91;45.74;100875.06;4919144;28;97136;-54
2022/07/20 03:27:40;;;;;;;6.17;3.70;;;23.80;93.50;;;24.08;41.39;100886.19;4915175;28;97540;-51
2022/07/20 03:30:07;;;;;;;3.77;3.10;;;23.90;89.10;;;24.08;45.72;100880.81;4919426;28;110346;-52
2022/07/20 03:32:33;;;;;;;4.90;3.55;;;24.00;94.00;;;24.12;45.08;100887.63;4913342;28;98546;-53
2022/07/20 03:34:59;;;;;;;4.25;2.92;;;24.00;93.10;;;24.14;45.46;100885.63;4920156;28;97083;-47
2022/07/20 03:37:25;;;;;;;2.30;2.15;;;24.10;93.40;;;24.13;45.36;100883.94;4920109;28;97140;-48
2022/07/20 03:39:52;;;;;;;5.55;3.38;;;24.00;93.80;;;24.19;41.71;100899.56;4904962;28;97415;-50
2022/07/20 03:42:18;;;;;;;6.85;4.15;;;24.10;91.00;;;24.16;39.65;100953.72;4910239;28;96810;-50
2022/07/20 03:44:44;;;;;;;8.17;3.97;;;24.10;89.30;;;24.05;44.43;100965.47;4915327;28;97340;-50
2022/07/20 03:47:10;;;;;;;2.60;2.40;;;24.10;92.60;;;24.04;44.76;100926.03;4935174;28;97489;-53
2022/07/20 03:49:36;;;;;;;8.17;4.70;;;24.00;93.20;;;24.18;40.03;100946.38;4930173;28;97154;-52
2022/07/20 03:52:02;;;;;;;8.65;4.15;;;24.00;89.50;;;24.19;43.66;100980.41;4927040;28;96683;-49
2022/07/20 03:54:28;;;;;;;5.90;3.70;;;24.10;92.50;;;24.09;43.91;101003.75;4928294;28;96863;-47
2022/07/20 03:56:54;;;;;;;4.05;2.90;;;24.00;92.50;;;24.11;44.37;100977.53;4923901;28;96645;-50
2022/07/20 03:59:19;;;;;;;7.53;4.50;;;24.00;92.90;;;24.13;44.79;100980.94;4918619;28;96896;-52
2022/07/20 04:01:45;;;;;;;7.20;4.05;;;24.00;93.20;;;24.14;45.00;100983.50;4911658;28;97700;-57
2022/07/20 04:04:11;;;;;;;5.18;3.65;;;24.00;93.20;;;24.17;44.94;100987.78;4912839;28;96918;-53
2022/07/20 04:06:37;;;;;;;3.65;2.78;;;24.10;93.60;;;24.19;45.04;100985.81;4909599;28;97241;-53
2022/07/20 04:09:03;;;;;;;5.03;3.93;;;24.10;93.70;;;24.18;42.75;100986.81;4937465;28;98496;-54
2022/07/20 04:11:29;;;;;;;6.97;3.80;;;24.10;91.80;;;24.19;45.11;100997.44;4930077;28;97599;-52
2022/07/20 04:13:55;;;;;;;5.20;3.53;;;24.10;93.50;;;24.20;45.17;100998.28;4919309;28;96974;-51
2022/07/20 04:16:21;;;;;;;2.93;2.30;;;24.10;93.60;;;24.21;45.25;101005.41;4924331;28;97452;-53
2022/07/20 04:18:47;;;;;;;3.13;2.85;;;24.10;93.70;;;24.22;45.40;101001.72;4921789;28;97480;-52
2022/07/20 04:21:13;;;;;;;3.00;2.58;;;24.10;93.80;;;24.21;45.25;101010.78;4915379;28;97452;-52
2022/07/20 04:23:38;;;;;;;2.80;2.60;;;24.10;93.90;;;24.22;45.41;101012.50;4915853;28;97341;-54
2022/07/20 04:26:04;;;;;;;2.58;2.15;;;24.10;93.90;;;24.21;45.45;101010.78;4927449;28;101773;-52
2022/07/20 04:28:30;;;;;;;2.60;2.40;;;24.10;94.00;;;24.21;45.67;101016.16;4930519;28;97534;-54
2022/07/20 04:30:56;;;;;;;2.60;2.40;;;24.10;94.00;;;24.19;45.73;101012.75;4918844;28;97252;-50
2022/07/20 04:33:22;;;;;;;5.70;3.73;;;24.10;94.00;;;24.18;45.44;101021.84;4920269;28;97117;-51
2022/07/20 04:35:47;;;;;;;4.78;3.25;;;24.10;93.90;;;24.18;45.65;101022.69;4918976;28;97372;-56
2022/07/20 04:38:13;;;;;;;10.48;4.60;;;24.10;94.00;;;24.20;44.60;101019.84;4925002;28;98109;-54
2022/07/20 04:40:40;;;;;;;7.75;4.25;;;24.10;93.00;;;24.21;44.96;101022.41;4919343;28;97251;-55
2022/07/20 04:43:06;;;;;;;3.00;2.67;;;24.10;93.60;;;24.20;45.39;101025.25;4919208;28;97518;-51
2022/07/20 04:45:33;;;;;;;4.15;2.70;;;24.10;94.00;;;24.19;45.54;101024.41;4924982;28;98880;-50
2022/07/20 04:47:59;;;;;;;2.83;2.63;;;24.10;94.00;;;24.19;45.69;101040.56;4917794;28;99834;-51
2022/07/20 04:50:25;;;;;;;10.20;5.03;;;24.10;94.40;;;24.19;45.37;101045.09;4917996;28;96829;-55
2022/07/20 04:52:51;;;;;;;8.83;4.43;;;24.10;93.90;;;24.21;44.96;101052.06;4912280;28;97166;-54
2022/07/20 04:55:17;;;;;;;8.07;4.20;;;24.10;93.60;;;24.23;44.52;101062.72;4908073;28;97408;-55
2022/07/20 04:57:43;;;;;;;3.63;2.80;;;24.10;93.30;;;24.20;45.70;101073.75;4908403;28;103087;-54
2022/07/20 05:00:11;;;;;;;10.63;4.32;;;24.10;94.00;;;24.22;45.78;101082.56;4922130;28;97479;-56
2022/07/20 05:02:37;;;;;;;6.43;3.60;;;24.10;94.10;;;24.19;45.64;101085.53;4919860;28;96895;-55
2022/07/20 05:05:05;;;;;;;7.40;4.25;;;24.10;94.10;;;24.13;45.33;101104.91;4920458;28;97214;-54
2022/07/20 05:07:31;;;;;;;9.23;5.85;;;24.00;93.60;;;24.06;43.67;101114.50;4916804;28;97590;-55
2022/07/20 05:09:57;;;;;;;11.50;7.68;;;24.00;92.70;;;24.01;44.62;101121.16;4917084;28;96993;-55
2022/07/20 05:12:22;;;;;;;9.73;6.57;;;24.00;93.20;;;24.03;45.04;101113.78;4919244;28;97531;-52
2022/07/20 05:14:48;;;;;;;13.95;7.68;;;24.00;93.40;;;24.06;44.88;101120.75;4912504;28;97308;-51
2022/07/20 05:17:15;;;;;;;16.90;9.02;;;24.00;93.50;;;24.04;45.26;101128.97;4915893;28;97494;-55
2022/07/20 05:19:40;;;;;;;13.52;9.13;;;24.00;93.50;;;24.10;44.07;101132.13;4911399;28;97181;-55
2022/07/20 05:22:06;;;;;;;10.45;7.97;;;24.00;92.80;;;24.04;45.37;101138.91;4930597;28;97003;-50
2022/07/20 05:24:32;;;;;;;11.18;9.38;;;24.00;93.60;;;24.10;44.62;101132.13;4913641;28;109539;-56
2022/07/20 05:26:58;;;;;;;13.33;9.10;;;24.10;93.30;;;24.15;45.14;101129.88;4903638;28;102686;-56
2022/07/20 05:29:23;;;;;;;10.43;9.10;;;24.10;93.60;;;24.20;44.93;101133.06;4911069;28;97192;-53
2022/07/20 05:31:49;;;;;;;13.15;9.50;;;24.10;93.40;;;24.21;45.03;101140.16;4902625;28;96985;-53
2022/07/20 05:34:15;;;;;;;11.40;9.52;;;24.10;93.60;;;24.18;45.14;101145.81;4905674;28;97224;-49
2022/07/20 05:36:41;;;;;;;16.80;10.38;;;24.10;93.60;;;24.21;45.09;101141.00;4906266;28;104490;-53
2022/07/20 05:39:09;;;;;;;15.98;11.00;;;24.10;93.60;;;24.22;45.10;101141.84;4913998;28;97388;-52
2022/07/20 05:41:36;;;;;;;13.27;11.88;;;24.10;93.60;;;24.27;45.05;101135.06;4908625;28;96946;-54
2022/07/20 05:44:02;;;;;;;18.67;11.55;;;24.20;93.70;;;24.26;45.19;101149.53;4907895;28;97843;-51
2022/07/20 05:46:28;;;;;;;14.25;11.75;;;24.20;93.70;;;24.27;45.45;101150.41;4908639;28;96911;-52
2022/07/20 05:48:54;;;;;;;15.13;11.98;;;24.20;93.80;;;24.32;45.56;101153.59;4908113;28;96752;-50
2022/07/20 05:51:20;;;;;;;16.73;12.40;;;24.20;94.00;;;24.36;45.34;101159.59;4914950;28;96837;-51
2022/07/20 05:53:46;;;;;;;18.52;11.90;;;24.30;93.90;;;24.36;45.97;101160.44;4909241;28;96993;-54
2022/07/20 05:56:11;;;;;;;19.75;12.88;;;24.30;94.10;;;24.38;45.44;101147.69;4897679;28;105210;-53
2022/07/20 05:58:38;;;;;;;15.18;10.73;;;24.30;94.00;;;24.43;45.50;101150.81;4891670;28;97070;-53
2022/07/20 06:01:04;;;;;;;15.15;12.45;;;24.40;94.00;;;24.39;45.57;101162.88;4910220;28;96919;-54
2022/07/20 06:03:30;;;;;;;16.02;12.40;;;24.30;93.90;;;24.44;46.33;101163.31;4919521;28;98525;-52
2022/07/20 06:05:56;;;;;;;17.65;14.63;;;24.30;94.40;;;24.41;45.79;101157.34;4910280;28;97143;-50
2022/07/20 06:08:21;;;;;;;20.38;14.25;;;24.30;94.10;;;24.41;46.23;101168.13;4910372;28;97471;-54
2022/07/20 06:10:47;;;;;;;18.48;13.10;;;24.30;94.50;;;24.43;45.72;101156.22;4919122;28;97429;-53
2022/07/20 06:13:13;;;;;;;17.63;14.55;;;24.30;94.10;;;24.51;46.68;101163.66;4924880;28;96947;-51
2022/07/20 06:15:39;;;;;;;19.67;14.55;;;24.40;94.80;;;24.55;46.25;101162.41;4916717;28;97152;-55
2022/07/20 06:18:06;;;;;;;16.88;14.38;;;24.50;94.70;;;24.65;45.70;101162.47;4924487;28;96801;-54
2022/07/20 06:20:32;;;;;;;17.00;14.18;;;24.60;94.50;;;24.68;45.87;101167.59;4922355;28;97041;-50
2022/07/20 06:22:58;;;;;;;21.55;15.13;;;24.60;94.60;;;24.64;46.77;101169.69;4919869;28;101846;-52
2022/07/20 06:25:25;;;;;;;18.95;15.02;;;24.60;94.80;;;24.55;46.11;101174.03;4913891;28;97029;-49
2022/07/20 06:27:50;;;;;;;19.95;16.13;;;24.50;94.40;;;24.45;46.35;101181.22;4917770;28;97209;-51
2022/07/20 06:30:16;;;;;;;20.52;16.70;;;24.40;94.40;;;24.46;47.05;101187.47;4918156;28;97330;-50
2022/07/20 06:32:42;;;;;;;24.55;16.42;;;24.40;95.10;;;24.45;46.69;101186.63;4912371;28;97950;-52
2022/07/20 06:35:08;;;;;;;22.40;15.48;;;24.40;94.80;;;24.48;46.32;101186.34;4934015;28;97912;-55
2022/07/20 06:37:34;;;;;;;23.48;17.35;;;24.40;94.70;;;24.50;46.63;101188.91;4915058;28;97444;-55
2022/07/20 06:40:00;;;;;;;19.67;17.17;;;24.40;94.70;;;24.51;46.11;101202.25;4906143;28;97403;-54
2022/07/20 06:42:26;;;;;;;22.23;16.77;;;24.40;94.70;;;24.53;47.88;101194.03;4915630;28;97407;-51
2022/07/20 06:44:52;;;;;;;14.05;11.57;;;24.40;95.90;;;24.52;46.65;101203.97;4908416;28;97368;-50
2022/07/20 06:47:18;;;;;;;25.42;17.58;;;24.40;94.90;;;24.47;48.68;101198.13;4924269;28;97234;-53
2022/07/20 06:49:43;;;;;;;18.98;15.63;;;24.40;95.80;;;24.47;46.62;101195.44;4910814;28;97017;-51
2022/07/20 06:52:09;;;;;;;22.70;18.15;;;24.40;94.90;;;24.51;47.97;101223.84;4919809;28;96971;-51
2022/07/20 06:54:35;;;;;;;21.20;18.88;;;24.50;96.20;;;24.48;47.08;101217.84;4902039;28;96906;-50
2022/07/20 06:57:01;;;;;;;23.58;19.52;;;24.40;95.30;;;24.63;48.46;101222.78;4908033;28;97283;-53
2022/07/20 06:59:27;;;;;;;23.48;20.17;;;24.60;96.90;;;24.56;48.37;101243.16;4913947;28;97447;-53
2022/07/20 07:01:53;;;;;;;21.02;17.45;;;24.60;96.20;;;24.56;47.76;101243.16;4904740;28;97619;-53
2022/07/20 07:04:19;;;;;;;21.58;19.13;;;24.50;95.40;;;24.60;47.81;101236.53;4913359;28;97351;-50
2022/07/20 07:06:45;;;;;;;23.80;18.48;;;24.60;96.40;;;24.52;47.22;101236.31;4914887;28;96832;-49
2022/07/20 07:09:11;;;;;;;25.17;20.35;;;24.50;95.40;;;24.53;47.22;101247.97;4916829;28;96807;-48
2022/07/20 07:11:37;;;;;;;21.58;18.70;;;24.50;95.50;;;24.52;49.39;101249.81;4921728;28;96914;-49
2022/07/20 07:14:05;;;;;;;23.23;20.08;;;24.50;96.70;;;24.50;49.28;101249.09;4931244;28;97489;-52
2022/07/20 07:16:31;;;;;;;23.42;19.95;;;24.50;96.30;;;24.53;48.48;101262.31;4922224;28;97403;-52
2022/07/20 07:18:57;;;;;;;24.63;19.30;;;24.50;96.40;;;24.49;47.73;101270.78;4914536;28;97450;-51
2022/07/20 07:21:23;;;;;;;25.35;19.75;;;24.50;95.60;;;24.57;48.41;101274.53;4914903;28;97843;-51
2022/07/20 07:23:49;;;;;;;23.83;19.83;;;24.60;96.10;;;24.56;47.18;101280.06;4918286;28;99026;-51
2022/07/20 07:26:20;;;;;;;24.40;20.65;;;24.60;95.50;;;24.68;48.79;101288.97;4919899;28;96644;-49
2022/07/20 07:28:47;;;;;;;27.90;21.58;;;24.60;96.90;;;24.69;48.89;101286.13;4916575;28;97279;-50
2022/07/20 07:31:13;;;;;;;23.27;20.85;;;24.70;96.60;;;24.81;49.00;101298.56;4921567;28;97028;-52
2022/07/20 07:33:39;;;;;;;23.05;20.75;;;24.80;96.80;;;24.86;47.73;101300.88;4911938;28;97806;-50
2022/07/20 07:36:05;;;;;;;23.90;21.35;;;24.90;96.20;;;24.91;49.11;101301.34;4915644;28;96746;-50
2022/07/20 07:38:32;;;;;;;23.58;19.25;;;24.90;96.60;;;25.04;49.31;101311.97;4908559;28;97404;-54
2022/07/20 07:40:58;;;;;;;27.58;20.95;;;25.00;96.90;;;25.13;49.01;101322.81;4908391;28;100082;-53
2022/07/20 07:43:23;;;;;;;25.25;19.70;;;25.10;96.80;;;25.13;48.78;101319.25;4910515;28;96990;-50
2022/07/20 07:45:49;;;;;;;20.63;18.55;;;25.20;96.50;;;25.05;47.79;101333.44;4920090;28;97531;-55
2022/07/20 07:48:16;;;;;;;24.23;19.98;;;25.10;95.90;;;24.99;47.16;101331.22;4917868;28;97347;-53
2022/07/20 07:50:43;;;;;;;25.20;20.95;;;25.00;95.30;;;25.10;47.00;101336.59;4929238;28;97282;-54
2022/07/20 07:53:11;;;;;;;26.83;19.75;;;25.20;95.80;;;25.03;48.97;101348.91;4936796;28;98777;-52
2022/07/20 07:55:39;;;;;;;24.25;21.48;;;25.00;96.00;;;25.26;48.59;101348.75;4912026;28;97267;-55
2022/07/20 07:58:08;;;;;;;23.05;20.40;;;25.20;96.60;;;25.19;47.37;101360.09;4914956;28;97885;-52
2022/07/20 08:00:35;;;;;;;30.10;21.75;;;25.20;95.90;;;25.34;48.58;101357.06;4916494;28;97023;-52
2022/07/20 08:03:03;;;;;;;26.17;19.63;;;25.40;96.30;;;25.32;48.01;101361.75;4922801;28;99640;-55
2022/07/20 08:05:29;;;;;;;27.58;20.60;;;25.40;96.20;;;25.24;46.40;101366.94;4923198;28;97453;-55
2022/07/20 08:07:55;;;;;;;22.05;19.67;;;25.30;94.90;;;25.07;47.22;101377.34;4917731;28;97499;-54
2022/07/20 08:10:21;;;;;;;23.10;20.02;;;25.10;95.40;;;25.07;49.33;101377.34;4923449;28;98594;-53
2022/07/20 08:12:47;;;;;;;27.15;20.55;;;25.10;96.90;;;25.16;49.58;101386.47;4919928;28;97454;-54
2022/07/20 08:15:13;;;;;;;21.02;18.63;;;25.20;97.10;;;25.02;46.82;101390.34;4924805;28;96841;-54
2022/07/20 08:17:44;;;;;;;27.58;19.85;;;25.10;95.20;;;25.00;48.35;101395.03;4920206;28;97413;-55
2022/07/20 08:20:11;;;;;;;22.83;19.30;;;25.00;96.20;;;25.06;48.00;101401.78;4923979;28;97130;-51
2022/07/20 08:22:36;;;;;;;24.00;18.27;;;25.10;96.30;;;25.11;48.34;101389.59;4926151;28;97143;-50
2022/07/20 08:25:03;;;;;;;25.67;19.67;;;25.10;96.10;;;25.16;47.00;101398.13;4917590;28;98543;-50
2022/07/20 08:27:28;;;;;;;28.48;18.95;;;25.20;95.50;;;25.11;48.33;101389.59;4924810;28;97166;-54
2022/07/20 08:29:58;;;;;;;22.15;18.90;;;25.10;96.40;;;25.08;48.14;101399.78;4908051;28;97215;-52
2022/07/20 08:32:25;;;;;;;23.90;19.48;;;25.10;96.10;;;25.13;47.24;101393.00;4903179;28;100080;-52
2022/07/20 08:34:51;;;;;;;22.13;19.20;;;25.10;96.10;;;24.97;46.98;101381.78;4894825;28;97949;-55
2022/07/20 08:37:17;;;;;;;21.55;19.15;;;25.00;95.50;;;24.95;49.01;101378.34;4892871;28;97522;-50
2022/07/20 08:39:43;;;;;;;25.00;18.10;;;24.90;96.90;;;24.94;47.13;101365.84;4890228;28;97636;-53
2022/07/20 08:42:14;;;;;;;23.70;19.27;;;25.00;96.10;;;25.10;49.51;101366.28;4895957;28;97584;-54
2022/07/20 08:44:42;;;;;;;23.52;20.00;;;25.10;97.10;;;25.07;49.97;101355.75;4901309;28;100072;-54
2022/07/20 08:47:12;;;;;;;26.65;19.60;;;25.10;97.10;;;25.16;48.99;101349.53;4935551;28;97327;-49
2022/07/20 08:49:48;;;;;;;29.75;19.48;;;25.10;96.70;;;25.24;48.68;101343.50;4927822;28;97260;-50
2022/07/20 08:52:16;;;;;;;24.08;19.70;;;25.20;96.80;;;25.15;48.56;101334.34;4931224;28;96989;-50
2022/07/20 08:54:43;;;;;;;23.45;19.48;;;25.20;96.00;;;25.40;47.05;101324.13;4926942;28;97862;-55
2022/07/20 08:57:11;;;;;;;23.92;19.80;;;25.40;96.00;;;25.43;48.19;101329.22;4931741;28;97133;-50
2022/07/20 09:00:01;;;;;;;25.52;19.83;;;25.40;96.20;;;25.45;47.67;101332.66;4911726;28;97407;-55
2022/07/20 09:02:28;;;;;;;22.80;18.95;;;25.50;96.00;;;25.49;48.56;101323.31;4925507;28;97208;-52
2022/07/20 09:04:58;;;;;;;23.40;18.83;;;25.50;96.60;;;25.37;47.42;101318.97;4917473;28;97082;-51
2022/07/20 09:07:45;;;;;;;23.33;18.17;;;25.40;95.90;;;25.50;49.12;101316.91;4921499;28;97313;-52
2022/07/20 09:10:21;;;;;;;27.92;19.80;;;25.40;96.80;;;25.34;46.80;101309.31;4910008;28;101891;-51
2022/07/20 09:12:54;;;;;;;23.17;19.25;;;25.30;95.60;;;25.39;48.57;101311.59;4918562;28;97002;-53
2022/07/20 09:16:02;;;;;;;23.63;19.17;;;25.30;96.60;;;25.37;48.40;101303.63;4926567;28;96820;-52
2022/07/20 09:18:33;;;;;;;26.85;20.20;;;25.30;97.30;;;25.22;48.08;101294.19;4926749;28;98136;-52
2022/07/20 09:21:03;;;;;;;21.88;18.48;;;25.20;96.50;;;25.27;48.03;101289.22;4923982;28;101915;-51
2022/07/20 09:23:42;;;;;;;23.08;18.55;;;25.30;96.50;;;25.27;49.28;101288.38;4928384;28;96763;-51
2022/07/20 09:26:17;;;;;;;21.05;18.67;;;25.20;95.70;;;25.28;46.84;101284.69;4921676;28;98012;-50
2022/07/20 09:28:47;;;;;;;19.73;17.52;;;25.30;95.60;;;25.25;46.87;101276.84;4923339;28;97472;-53
2022/07/20 09:31:48;;;;;;;21.70;19.35;;;25.30;95.30;;;25.32;48.70;101262.69;4924800;28;99120;-49
2022/07/20 09:34:21;;;;;;;21.10;17.42;;;25.30;96.40;;;25.12;47.27;101266.28;4915025;28;101702;-54
2022/07/20 09:36:47;;;;;;;21.05;18.40;;;25.20;95.90;;;25.01;47.81;101269.91;4930178;28;97164;-53
2022/07/20 09:39:18;;;;;;;21.55;17.98;;;25.00;95.90;;;25.24;49.01;101285.94;4918190;28;99121;-54
2022/07/20 09:41:51;;;;;;;21.20;18.80;;;25.20;96.90;;;25.32;46.74;101305.03;4922474;28;96993;-53
2022/07/20 09:44:26;;;;;;;22.80;18.40;;;25.30;96.00;;;25.35;47.73;101332.63;4929565;28;96952;-53
2022/07/20 09:46:52;;;;;;;21.50;18.52;;;25.40;95.30;;;25.25;47.28;101338.94;4917335;28;97213;-54
2022/07/20 09:49:21;;;;;;;20.35;18.23;;;25.30;95.70;;;25.56;47.32;101329.03;4924165;28;99467;-54
2022/07/20 09:51:57;;;;;;;23.67;18.55;;;25.60;95.70;;;25.50;45.83;101335.81;4916615;28;96884;-51
2022/07/20 09:54:22;;;;;;;20.02;17.90;;;25.60;94.40;;;25.72;46.79;101354.56;4922825;28;96892;-54
2022/07/20 09:56:51;;;;;;;21.30;17.58;;;25.70;95.50;;;25.68;46.70;101357.66;4923005;28;97153;-54
2022/07/20 09:59:19;;;;;;;19.40;16.35;;;25.80;95.10;;;25.83;46.48;101366.28;4924923;28;97013;-48
2022/07/20 10:01:53;;;;;;;18.77;15.13;;;25.90;95.60;;;25.93;46.83;101370.75;4927323;28;97811;-53
2022/07/20 10:04:21;;;;;;;24.52;16.48;;;26.00;95.00;;;25.98;46.71;101378.44;4930154;28;97146;-52
2022/07/20 10:06:52;;;;;;;20.05;16.38;;;26.00;95.50;;;26.08;46.63;101380.19;4921400;28;97195;-51
2022/07/20 10:09:19;;;;;;;18.58;14.57;;;26.10;95.20;;;26.22;45.09;101381.63;4924188;28;96952;-54